Time;durP1;ratioP1;P1;durP2;ratioP2;P2;SDS_P1;SDS_P2;PMS_P1;PMS_P2;Temp;Humidity;BMP_temperature;BMP_pressure;BME280_temperature;BME280_humidity;BME280_pressure;Samples;Min_cycle;Max_cycle;Signal;HPM_P1;HPM_P2
2022/11/26 12:23:44;;;;;;;13.13;3.80;;;15.70;41.60;;;;;;4939461;28;20049;-90
2022/11/26 12:26:32;;;;;;;13.65;4.10;;;13.90;47.10;;;;;;4993858;28;20063;-86
2022/11/26 12:29:05;;;;;;;13.88;4.00;;;12.80;51.40;;;;;;4976082;28;20022;-87
2022/11/26 12:31:37;;;;;;;9.70;3.28;;;12.40;52.00;;;;;;4979840;28;20027;-89
2022/11/26 12:34:25;;;;;;;13.00;3.65;;;12.10;53.20;;;;;;4980221;28;20398;-86
2022/11/26 12:37:04;;;;;;;10.25;3.42;;;11.90;53.90;;;;;;4979450;28;20077;-85
2022/11/26 12:39:59;;;;;;;17.38;4.18;;;12.00;54.30;;;;;;4997029;28;20061;-86
2022/11/26 12:43:06;;;;;;;14.25;4.30;;;12.20;53.30;;;;;;4996540;28;20076;-85
2022/11/26 12:45:38;;;;;;;10.75;3.35;;;12.20;53.80;;;;;;4981563;28;20026;-88
2022/11/26 12:48:17;;;;;;;11.15;3.22;;;12.40;53.50;;;;;;4981178;28;20394;-87
2022/11/26 12:50:48;;;;;;;19.02;4.72;;;12.50;52.60;;;;;;4979190;28;20076;-88
2022/11/26 12:53:46;;;;;;;14.02;4.00;;;12.70;51.80;;;;;;4996771;28;20466;-88
2022/11/26 12:56:14;;;;;;;10.93;4.95;;;12.80;52.50;;;;;;4983641;28;20022;-90
2022/11/26 12:58:46;;;;;;;16.13;4.45;;;15.20;48.30;;;;;;4980182;28;20026;-87
2022/11/26 13:01:12;;;;;;;13.23;4.80;;;18.70;39.90;;;;;;4998333;28;20022;-89
2022/11/26 13:03:39;;;;;;;11.05;3.38;;;20.20;33.70;;;;;;4981152;28;20029;-89
2022/11/26 13:06:18;;;;;;;11.75;4.45;;;20.40;32.50;;;;;;4997560;28;20026;-88
2022/11/26 13:08:50;;;;;;;8.10;3.47;;;20.60;32.00;;;;;;4998026;28;20565;-87
2022/11/26 13:11:30;;;;;;;14.13;6.35;;;21.60;30.00;;;;;;4980930;28;20068;-89
2022/11/26 13:14:13;;;;;;;9.20;4.38;;;21.40;29.20;;;;;;4997344;28;20034;-88
2022/11/26 13:17:19;;;;;;;9.52;4.05;;;21.00;29.60;;;;;;4980196;28;20018;-89
2022/11/26 13:20:04;;;;;;;10.68;3.53;;;20.40;30.80;;;;;;4979295;28;20042;-88
2022/11/26 13:23:11;;;;;;;13.98;3.63;;;19.20;32.10;;;;;;4980566;28;20391;-87
2022/11/26 13:25:40;;;;;;;9.63;3.50;;;17.90;34.40;;;;;;4979867;28;20097;-88
2022/11/26 13:28:36;;;;;;;8.65;3.05;;;16.80;36.90;;;;;;4979800;28;20234;-87
2022/11/26 13:31:21;;;;;;;8.90;3.30;;;16.10;38.80;;;;;;4981504;28;20023;-88
2022/11/26 13:34:03;;;;;;;7.00;3.20;;;17.30;38.80;;;;;;4998038;28;20054;-88
2022/11/26 13:36:32;;;;;;;10.13;3.65;;;20.00;33.80;;;;;;5010708;28;20030;-89
2022/11/26 13:39:11;;;;;;;7.18;2.53;;;21.60;31.00;;;;;;4983225;28;20022;-90
2022/11/26 13:42:15;;;;;;;11.25;2.90;;;22.60;27.20;;;;;;4979402;28;20034;-89
2022/11/26 13:45:03;;;;;;;10.00;3.15;;;21.80;27.50;;;;;;4945498;28;20030;-89
2022/11/26 13:47:36;;;;;;;12.05;3.03;;;20.30;29.70;;;;;;4998409;28;20039;-86
2022/11/26 13:50:09;;;;;;;7.68;2.50;;;19.00;33.00;;;;;;4982281;28;20022;-85
2022/11/26 13:52:55;;;;;;;9.45;2.60;;;18.00;35.40;;;;;;4985906;28;20085;-85
2022/11/26 13:55:27;;;;;;;;;;;17.20;37.20;;;;;;4986230;28;20027;-84
2022/11/26 13:57:57;;;;;;;7.38;2.33;;;16.50;38.90;;;;;;5007363;28;19890;-84
2022/11/26 14:00:34;;;;;;;9.13;2.53;;;16.00;39.90;;;;;;5000910;28;20041;-85
2022/11/26 14:03:01;;;;;;;10.38;3.35;;;15.70;41.00;;;;;;5000827;28;20014;-85
2022/11/26 14:05:48;;;;;;;12.63;3.58;;;16.50;40.70;;;;;;5018806;28;20046;-86
2022/11/26 14:08:40;;;;;;;13.38;3.78;;;19.10;36.50;;;;;;5002545;28;20049;-85
2022/11/26 14:11:06;;;;;;;10.35;4.00;;;22.20;30.20;;;;;;5001402;28;20014;-86
2022/11/26 14:13:31;;;;;;;25.30;12.45;;;23.80;25.30;;;;;;5002696;28;20114;-87
2022/11/26 14:16:08;;;;;;;18.45;8.80;;;23.00;24.60;;;;;;4995208;28;20030;-89
2022/11/26 14:18:55;;;;;;;12.38;5.60;;;21.50;27.30;;;;;;4986037;28;20033;-88
2022/11/26 14:21:22;;;;;;;10.55;3.78;;;21.30;29.60;;;;;;4979782;28;20474;-87
2022/11/26 14:23:50;;;;;;;14.02;6.15;;;22.50;28.00;;;;;;4977912;28;20118;-89
2022/11/26 14:26:36;;;;;;;12.65;5.45;;;23.60;25.40;;;;;;4978187;28;20085;-86
2022/11/26 14:29:07;;;;;;;8.70;3.70;;;23.70;24.60;;;;;;4978335;28;20022;-86
2022/11/26 14:31:34;;;;;;;9.65;3.58;;;24.30;24.60;;;;;;4978095;28;20038;-87
2022/11/26 14:34:22;;;;;;;7.53;3.22;;;25.20;22.80;;;;;;4977106;28;20052;-87
2022/11/26 14:36:54;;;;;;;8.23;3.10;;;26.40;20.50;;;;;;4978522;28;20063;-88
2022/11/26 14:39:19;;;;;;;6.40;2.75;;;27.00;19.00;;;;;;4979288;28;20113;-88
2022/11/26 14:41:48;;;;;;;5.18;2.00;;;27.00;19.20;;;;;;4978315;28;20062;-88
2022/11/26 14:44:15;;;;;;;4.90;2.00;;;26.70;19.20;;;;;;4978314;28;20033;-86
2022/11/26 14:46:44;;;;;;;7.82;2.38;;;26.50;19.30;;;;;;4995387;28;20359;-87
2022/11/26 14:49:41;;;;;;;7.10;2.47;;;25.70;19.90;;;;;;4978061;28;20537;-88
2022/11/26 14:52:37;;;;;;;6.13;3.70;;;24.60;21.60;;;;;;4979226;28;20018;-88
2022/11/26 14:55:07;;;;;;;;;;;22.80;24.80;;;;;;4963527;28;20054;-88
2022/11/26 14:57:40;;;;;;;5.07;2.60;;;20.90;28.40;;;;;;4994461;28;19912;-86
2022/11/26 15:00:28;;;;;;;6.30;2.40;;;19.30;31.50;;;;;;4977022;28;20108;-85
2022/11/26 15:02:54;;;;;;;8.80;3.85;;;18.10;35.20;;;;;;4994385;28;20022;-86
2022/11/26 15:05:27;;;;;;;7.88;3.90;;;16.90;37.10;;;;;;4994134;28;20084;-85
2022/11/26 15:08:04;;;;;;;7.55;3.63;;;15.80;39.70;;;;;;4976309;28;20042;-86
2022/11/26 15:10:45;;;;;;;8.68;3.75;;;14.70;42.60;;;;;;4976508;28;20037;-85
2022/11/26 15:13:27;;;;;;;9.43;4.75;;;13.90;45.30;;;;;;4976521;28;20018;-84
2022/11/26 15:15:58;;;;;;;12.13;5.18;;;13.00;47.70;;;;;;4976801;28;20359;-83
2022/11/26 15:18:33;;;;;;;11.13;4.95;;;12.40;49.90;;;;;;4976449;28;20022;-84
2022/11/26 15:21:01;;;;;;;11.50;5.57;;;11.90;51.30;;;;;;4976289;28;20081;-84
2022/11/26 15:23:34;;;;;;;10.07;4.65;;;11.40;52.50;;;;;;4993768;28;20038;-84
2022/11/26 15:26:01;;;;;;;10.82;4.10;;;11.00;54.50;;;;;;4993453;28;20117;-83
2022/11/26 15:28:27;;;;;;;6.85;2.90;;;10.70;57.10;;;;;;4976198;28;20079;-83
2022/11/26 15:30:57;;;;;;;8.30;3.08;;;10.30;57.30;;;;;;4976206;28;20031;-84
2022/11/26 15:33:25;;;;;;;7.40;3.03;;;10.00;59.00;;;;;;4978496;28;20090;-82
2022/11/26 15:35:57;;;;;;;6.35;2.83;;;9.70;60.20;;;;;;4994418;28;20018;-85
2022/11/26 15:38:33;;;;;;;7.28;2.88;;;9.50;61.60;;;;;;4993828;28;20581;-84
2022/11/26 15:41:06;;;;;;;8.77;3.53;;;9.20;62.40;;;;;;4975753;28;20110;-85
2022/11/26 15:43:39;;;;;;;11.18;3.15;;;9.00;64.30;;;;;;4976743;28;20026;-84
2022/11/26 15:46:22;;;;;;;11.32;3.30;;;8.80;65.10;;;;;;4996850;28;20126;-84
2022/11/26 15:48:49;;;;;;;8.55;3.88;;;8.60;66.00;;;;;;4978625;28;20030;-85
2022/11/26 15:51:32;;;;;;;8.32;3.22;;;8.40;66.80;;;;;;4995026;28;20033;-84
2022/11/26 15:54:00;;;;;;;10.48;3.58;;;8.30;67.50;;;;;;4978105;28;20025;-85
2022/11/26 15:56:36;;;;;;;7.93;3.47;;;8.20;67.90;;;;;;4976149;28;20030;-85
2022/11/26 15:59:14;;;;;;;10.05;4.63;;;8.10;68.90;;;;;;4976633;28;20030;-84
2022/11/26 16:01:43;;;;;;;12.80;5.30;;;8.00;68.70;;;;;;4976265;28;20097;-85
2022/11/26 16:04:28;;;;;;;12.55;7.03;;;7.80;69.10;;;;;;4976644;28;20417;-84
2022/11/26 16:07:12;;;;;;;12.82;6.30;;;7.80;69.50;;;;;;4979338;28;20030;-85
2022/11/26 16:09:37;;;;;;;11.00;5.30;;;7.60;70.50;;;;;;4979634;28;20034;-84
2022/11/26 16:12:03;;;;;;;13.77;4.93;;;7.40;71.40;;;;;;4979736;28;20029;-84
2022/11/26 16:14:37;;;;;;;9.93;5.25;;;7.30;71.90;;;;;;4997290;28;20032;-86
2022/11/26 16:17:17;;;;;;;17.23;7.35;;;7.30;72.00;;;;;;4980055;28;20130;-85
2022/11/26 16:19:57;;;;;;;12.52;6.47;;;7.20;72.30;;;;;;4979918;28;20020;-85
2022/11/26 16:22:27;;;;;;;17.45;7.15;;;7.10;72.60;;;;;;4979645;28;20057;-85
2022/11/26 16:25:21;;;;;;;15.65;7.65;;;7.10;72.70;;;;;;4996838;28;20047;-85
2022/11/26 16:28:11;;;;;;;16.25;7.60;;;7.00;73.00;;;;;;4975773;28;20088;-84
2022/11/26 16:30:38;;;;;;;12.45;7.00;;;7.00;73.50;;;;;;4979507;28;20109;-85
2022/11/26 16:33:05;;;;;;;17.63;6.85;;;6.80;74.10;;;;;;4979958;28;20390;-85
2022/11/26 16:35:31;;;;;;;15.60;7.45;;;6.70;74.70;;;;;;4979667;28;20519;-86
2022/11/26 16:37:56;;;;;;;21.63;8.40;;;6.60;74.70;;;;;;4980137;28;20488;-85
2022/11/26 16:40:23;;;;;;;18.38;7.47;;;6.60;74.70;;;;;;4979959;28;20027;-86
2022/11/26 16:42:49;;;;;;;18.20;8.05;;;6.60;75.00;;;;;;4979866;28;20080;-86
2022/11/26 16:45:16;;;;;;;18.55;7.57;;;6.50;75.40;;;;;;4980077;28;20022;-87
2022/11/26 16:47:51;;;;;;;17.42;8.25;;;6.50;75.70;;;;;;4979610;28;20121;-86
2022/11/26 16:50:19;;;;;;;12.57;6.57;;;6.50;75.70;;;;;;4997828;28;20029;-87
2022/11/26 16:52:46;;;;;;;19.17;9.90;;;6.50;75.60;;;;;;4991620;28;20041;-87
2022/11/26 16:55:13;;;;;;;18.58;8.57;;;6.50;75.50;;;;;;4991470;28;20019;-86
2022/11/26 16:57:39;;;;;;;17.80;8.40;;;6.40;75.70;;;;;;4985698;28;20037;-87
2022/11/26 17:00:07;;;;;;;18.13;7.95;;;6.30;76.20;;;;;;4984509;28;20030;-86
2022/11/26 17:02:33;;;;;;;13.70;7.50;;;6.30;76.10;;;;;;4983712;28;20027;-86
2022/11/26 17:04:59;;;;;;;17.30;7.88;;;6.30;76.30;;;;;;4983178;28;20091;-86
2022/11/26 17:07:29;;;;;;;15.65;7.80;;;6.30;76.30;;;;;;4979529;28;20041;-86
2022/11/26 17:09:55;;;;;;;16.88;7.93;;;6.20;76.70;;;;;;4979041;28;20376;-87
2022/11/26 17:12:24;;;;;;;15.20;7.00;;;6.20;76.90;;;;;;4979196;28;20034;-87
2022/11/26 17:14:50;;;;;;;12.75;6.88;;;6.20;76.90;;;;;;4979005;28;20383;-87
2022/11/26 17:17:19;;;;;;;18.80;8.80;;;6.20;76.90;;;;;;4978255;28;20026;-87
2022/11/26 17:19:45;;;;;;;20.77;9.07;;;6.20;76.80;;;;;;4979196;28;20037;-88
2022/11/26 17:22:12;;;;;;;9.63;4.57;;;6.10;77.00;;;;;;4978123;28;20030;-80
2022/11/26 17:24:39;;;;;;;14.98;6.70;;;6.70;90.80;;;;;;4995168;28;20050;-78
2022/11/26 17:27:13;;;;;;;15.90;7.47;;;7.10;86.00;;;;;;4994812;28;20498;-83
2022/11/26 17:29:39;;;;;;;13.50;6.68;;;7.40;80.20;;;;;;4995776;28;20034;-78
2022/11/26 17:32:05;;;;;;;21.55;9.00;;;7.40;76.40;;;;;;4988162;28;20122;-77
2022/11/26 17:34:31;;;;;;;17.88;7.90;;;7.40;73.90;;;;;;4975732;28;20518;-77
2022/11/26 17:36:58;;;;;;;14.55;7.53;;;7.30;74.90;;;;;;4975328;28;20062;-78
2022/11/26 17:39:25;;;;;;;13.98;7.38;;;7.10;74.30;;;;;;4975392;28;20030;-76
2022/11/26 17:41:51;;;;;;;20.15;8.10;;;7.00;74.90;;;;;;4975558;28;20502;-77
2022/11/26 17:44:16;;;;;;;17.02;7.82;;;7.00;74.90;;;;;;4975040;28;20031;-77
2022/11/26 17:46:42;;;;;;;18.63;8.25;;;7.00;75.20;;;;;;4975352;28;20029;-77
2022/11/26 17:49:08;;;;;;;15.23;7.32;;;7.00;75.50;;;;;;4975303;28;20095;-76
2022/11/26 17:51:35;;;;;;;15.77;8.25;;;7.40;76.60;;;;;;4975330;28;20015;-77
2022/11/26 17:54:00;;;;;;;14.65;7.82;;;7.40;74.40;;;;;;4975045;28;20109;-77
2022/11/26 17:56:26;;;;;;;17.60;8.10;;;7.40;74.30;;;;;;4975392;28;20093;-77
2022/11/26 17:58:52;;;;;;;14.68;8.10;;;7.30;73.90;;;;;;4975420;28;20037;-76
2022/11/26 18:01:18;;;;;;;15.43;7.20;;;7.40;74.60;;;;;;4975303;28;20022;-85
2022/11/26 18:03:45;;;;;;;20.50;7.45;;;7.50;74.00;;;;;;4976214;28;20109;-86
2022/11/26 18:06:15;;;;;;;16.67;6.85;;;7.50;72.90;;;;;;4976279;28;20495;-89
2022/11/26 18:08:41;;;;;;;15.35;6.85;;;7.40;70.90;;;;;;4958908;28;20090;-86
2022/11/26 18:11:07;;;;;;;12.70;6.80;;;6.90;71.50;;;;;;4958490;28;20023;-85
2022/11/26 18:13:32;;;;;;;12.77;7.15;;;6.40;73.20;;;;;;4959457;28;20038;-87
2022/11/26 18:15:59;;;;;;;16.02;7.82;;;6.10;75.10;;;;;;4961720;28;20019;-85
2022/11/26 18:18:25;;;;;;;13.55;7.18;;;5.70;76.40;;;;;;4958518;28;20054;-87
2022/11/26 18:20:51;;;;;;;18.10;7.78;;;5.40;77.70;;;;;;4959296;28;20027;-87
2022/11/26 18:23:16;;;;;;;15.43;7.15;;;5.30;78.50;;;;;;4958507;28;20054;-86
2022/11/26 18:25:42;;;;;;;17.30;7.80;;;5.10;79.20;;;;;;4962482;28;20562;-87
2022/11/26 18:28:07;;;;;;;16.25;7.60;;;5.10;79.60;;;;;;4943505;28;20371;-87
2022/11/26 18:30:33;;;;;;;17.20;7.65;;;5.00;80.30;;;;;;4959137;28;20023;-86
2022/11/26 18:32:59;;;;;;;16.27;7.45;;;4.80;81.50;;;;;;4961239;28;20121;-87
2022/11/26 18:35:24;;;;;;;16.58;9.23;;;4.90;81.20;;;;;;4959045;28;20497;-85
2022/11/26 18:37:50;;;;;;;19.08;9.00;;;4.80;81.20;;;;;;4958817;28;20549;-86
2022/11/26 18:40:16;;;;;;;19.30;8.95;;;4.70;81.30;;;;;;4958666;28;20034;-86
2022/11/26 18:42:42;;;;;;;20.08;10.55;;;4.70;81.50;;;;;;4958726;28;20429;-88
2022/11/26 18:45:12;;;;;;;21.02;10.57;;;4.70;81.30;;;;;;4959150;28;20113;-88
2022/11/26 18:47:38;;;;;;;15.18;9.50;;;4.60;81.30;;;;;;4960246;28;20035;-87
2022/11/26 18:50:05;;;;;;;19.13;8.95;;;4.70;81.10;;;;;;4975191;28;20375;-89
2022/11/26 18:52:30;;;;;;;16.70;8.95;;;4.70;81.00;;;;;;4967000;28;20063;-87
2022/11/26 18:54:56;;;;;;;16.02;9.18;;;4.60;81.00;;;;;;4976097;28;20023;-88
2022/11/26 18:57:21;;;;;;;17.88;8.68;;;4.60;81.30;;;;;;4959157;28;20024;-88
2022/11/26 18:59:49;;;;;;;23.20;9.55;;;4.40;81.50;;;;;;4975763;28;20074;-86
2022/11/26 19:02:15;;;;;;;21.48;9.77;;;4.40;82.00;;;;;;4959732;28;20030;-87
2022/11/26 19:04:40;;;;;;;21.35;9.50;;;4.30;82.20;;;;;;4958897;28;20033;-87
2022/11/26 19:07:07;;;;;;;18.80;10.30;;;4.30;82.10;;;;;;4975843;28;20049;-86
2022/11/26 19:09:32;;;;;;;18.08;9.30;;;4.40;82.00;;;;;;4958366;28;20026;-87
2022/11/26 19:11:58;;;;;;;20.58;10.30;;;4.30;82.10;;;;;;4959685;28;20027;-88
2022/11/26 19:14:24;;;;;;;18.60;9.20;;;4.30;82.40;;;;;;4962330;28;20027;-89
2022/11/26 19:16:50;;;;;;;18.73;8.80;;;4.20;82.60;;;;;;4947799;28;20050;-83
2022/11/26 19:19:17;;;;;;;19.67;8.63;;;4.20;82.70;;;;;;4958694;28;20034;-85
2022/11/26 19:21:42;;;;;;;18.35;8.93;;;4.20;82.20;;;;;;4960537;28;20031;-86
2022/11/26 19:24:10;;;;;;;16.90;9.13;;;4.20;82.40;;;;;;4962492;28;20134;-88
2022/11/26 19:26:36;;;;;;;17.48;8.55;;;4.20;82.60;;;;;;4965259;28;20042;-88
2022/11/26 19:29:04;;;;;;;18.58;8.82;;;4.00;83.20;;;;;;4966152;28;20035;-88
2022/11/26 19:31:34;;;;;;;19.13;9.15;;;4.00;83.60;;;;;;4963075;28;20019;-87
2022/11/26 19:34:04;;;;;;;18.95;9.27;;;4.00;83.60;;;;;;4961403;28;20110;-87
2022/11/26 19:36:31;;;;;;;19.90;9.60;;;3.90;83.90;;;;;;4960215;28;20024;-87
2022/11/26 19:38:58;;;;;;;18.30;8.93;;;3.90;84.10;;;;;;4964117;28;20042;-85
2022/11/26 19:41:25;;;;;;;15.05;8.55;;;3.80;83.80;;;;;;4989474;28;20145;-85
2022/11/26 19:43:51;;;;;;;20.52;9.00;;;3.80;84.00;;;;;;4981692;28;20080;-85
2022/11/26 19:46:20;;;;;;;20.88;9.20;;;3.80;83.80;;;;;;4968447;28;20037;-86
2022/11/26 19:48:47;;;;;;;18.77;9.27;;;3.80;83.90;;;;;;4964720;28;20031;-85
2022/11/26 19:51:14;;;;;;;16.77;9.18;;;3.90;83.80;;;;;;4963212;28;20030;-86
2022/11/26 19:53:40;;;;;;;20.92;9.00;;;3.80;83.80;;;;;;4980080;28;20494;-86
2022/11/26 19:56:19;;;;;;;21.63;9.77;;;3.80;83.80;;;;;;4980616;28;20031;-86
2022/11/26 19:58:45;;;;;;;24.70;10.95;;;3.80;83.50;;;;;;4963215;28;20030;-87
2022/11/26 20:01:14;;;;;;;19.70;9.85;;;3.80;83.50;;;;;;4967736;28;20027;-87
2022/11/26 20:03:40;;;;;;;21.67;9.52;;;3.70;83.60;;;;;;4967494;28;20041;-88
2022/11/26 20:06:21;;;;;;;19.48;9.90;;;3.70;83.80;;;;;;4984393;28;20038;-87
2022/11/26 20:08:48;;;;;;;17.90;9.05;;;3.60;84.20;;;;;;4966153;28;20118;-87
2022/11/26 20:11:15;;;;;;;20.77;9.82;;;3.60;85.00;;;;;;4967403;28;20039;-87
2022/11/26 20:13:42;;;;;;;22.48;10.00;;;3.70;84.20;;;;;;4966805;28;20086;-86
2022/11/26 20:16:11;;;;;;;27.17;11.18;;;3.70;83.90;;;;;;4967882;28;20081;-87
2022/11/26 20:18:38;;;;;;;23.38;12.10;;;3.70;83.50;;;;;;4964252;28;20029;-85
2022/11/26 20:21:09;;;;;;;19.83;11.43;;;3.70;83.70;;;;;;4963464;28;20031;-86
2022/11/26 20:23:36;;;;;;;20.15;10.77;;;3.70;83.70;;;;;;4964990;28;20054;-87
2022/11/26 20:26:02;;;;;;;21.52;11.52;;;3.60;83.60;;;;;;4964112;28;20042;-87
2022/11/26 20:28:28;;;;;;;22.23;11.95;;;3.60;83.40;;;;;;4966924;28;20038;-87
2022/11/26 20:30:53;;;;;;;28.48;12.02;;;3.60;83.40;;;;;;4964572;28;20026;-86
2022/11/26 20:33:21;;;;;;;28.92;12.38;;;3.50;83.90;;;;;;4963340;28;20429;-87
2022/11/26 20:35:47;;;;;;;25.95;12.02;;;3.50;84.20;;;;;;4964118;28;20027;-87
2022/11/26 20:38:13;;;;;;;19.50;12.38;;;3.50;84.20;;;;;;4963649;28;20027;-86
2022/11/26 20:40:41;;;;;;;23.15;13.18;;;3.50;84.10;;;;;;4964264;28;20030;-87
2022/11/26 20:43:08;;;;;;;25.73;13.75;;;3.50;84.30;;;;;;4962782;28;20060;-87
2022/11/26 20:45:34;;;;;;;29.45;14.00;;;3.50;84.10;;;;;;4972358;28;20051;-86
2022/11/26 20:47:59;;;;;;;24.60;13.82;;;3.50;83.70;;;;;;4976450;28;20038;-86
2022/11/26 20:50:25;;;;;;;25.45;12.40;;;3.60;83.60;;;;;;4999186;28;20022;-86
2022/11/26 20:52:51;;;;;;;27.40;13.43;;;3.50;83.20;;;;;;4982200;28;20033;-86
2022/11/26 20:55:20;;;;;;;22.85;11.88;;;3.50;83.40;;;;;;4982756;28;20034;-87
2022/11/26 20:57:47;;;;;;;25.05;13.40;;;3.50;83.40;;;;;;4983026;28;20033;-86
2022/11/26 21:00:15;;;;;;;23.92;13.20;;;3.50;83.20;;;;;;4983509;28;20165;-86
2022/11/26 21:02:42;;;;;;;21.70;12.27;;;3.50;83.30;;;;;;4999494;28;20161;-85
2022/11/26 21:05:08;;;;;;;22.08;11.77;;;3.50;83.20;;;;;;4981959;28;20042;-86
2022/11/26 21:07:34;;;;;;;27.33;12.68;;;3.40;83.60;;;;;;4981354;28;20034;-86
2022/11/26 21:10:00;;;;;;;22.00;11.70;;;3.40;83.60;;;;;;4980382;28;20102;-85
2022/11/26 21:12:26;;;;;;;23.17;12.40;;;3.20;83.90;;;;;;4980492;28;20034;-85
2022/11/26 21:14:51;;;;;;;27.73;12.50;;;3.20;84.20;;;;;;4980422;28;20381;-85
2022/11/26 21:17:17;;;;;;;24.70;12.30;;;3.10;84.50;;;;;;4980060;28;20034;-85
2022/11/26 21:19:42;;;;;;;20.33;10.80;;;3.10;84.60;;;;;;4979660;28;20057;-84
2022/11/26 21:22:08;;;;;;;26.48;11.55;;;3.20;84.90;;;;;;4979191;28;20029;-85
2022/11/26 21:24:35;;;;;;;23.35;11.25;;;3.20;84.70;;;;;;4997018;28;20057;-85
2022/11/26 21:27:01;;;;;;;29.35;13.98;;;3.20;84.70;;;;;;4979844;28;20486;-85
2022/11/26 21:29:27;;;;;;;33.45;13.13;;;3.30;84.50;;;;;;5000072;28;20039;-85
2022/11/26 21:31:53;;;;;;;23.60;11.32;;;3.30;84.30;;;;;;4984104;28;20022;-85
2022/11/26 21:34:18;;;;;;;19.77;10.00;;;3.40;84.00;;;;;;4993736;28;20031;-85
2022/11/26 21:36:44;;;;;;;17.40;9.13;;;3.30;83.90;;;;;;5003578;28;20086;-84
2022/11/26 21:39:14;;;;;;;17.67;8.88;;;3.40;83.60;;;;;;5020414;28;20041;-85
2022/11/26 21:41:40;;;;;;;19.08;9.02;;;3.40;83.30;;;;;;5003338;28;20025;-85
2022/11/26 21:44:05;;;;;;;22.92;9.60;;;3.40;83.30;;;;;;4992815;28;20038;-87
2022/11/26 21:46:32;;;;;;;21.98;10.57;;;3.50;83.00;;;;;;4980638;28;20056;-85
2022/11/26 21:48:58;;;;;;;18.00;9.57;;;3.50;82.60;;;;;;4980850;28;20026;-86
2022/11/26 21:51:27;;;;;;;17.70;9.10;;;3.40;82.30;;;;;;4980990;28;20122;-86
2022/11/26 21:53:54;;;;;;;19.55;9.73;;;3.40;82.00;;;;;;4978899;28;20030;-85
2022/11/26 21:56:23;;;;;;;17.50;8.77;;;3.40;82.20;;;;;;4979249;28;20050;-85
2022/11/26 21:58:49;;;;;;;17.58;8.95;;;3.30;82.50;;;;;;4979981;28;20023;-86
2022/11/26 22:01:18;;;;;;;16.80;8.43;;;3.30;82.80;;;;;;4997129;28;20081;-85
2022/11/26 22:03:47;;;;;;;17.52;8.30;;;3.20;83.00;;;;;;4996385;28;20375;-85
2022/11/26 22:06:14;;;;;;;16.10;7.95;;;3.20;83.20;;;;;;4979357;28;20027;-85
2022/11/26 22:08:41;;;;;;;18.40;8.73;;;3.20;83.10;;;;;;4979156;28;20371;-86
2022/11/26 22:11:09;;;;;;;16.85;7.57;;;3.20;83.20;;;;;;4978458;28;20022;-84
2022/11/26 22:13:34;;;;;;;16.00;7.75;;;3.10;83.20;;;;;;4978147;28;20037;-84
2022/11/26 22:16:00;;;;;;;13.77;7.30;;;3.20;83.20;;;;;;4995560;28;20395;-83
2022/11/26 22:18:26;;;;;;;18.55;9.55;;;3.20;83.10;;;;;;4978227;28;20496;-83
2022/11/26 22:20:52;;;;;;;14.10;7.32;;;3.20;82.80;;;;;;4977948;28;20482;-83
2022/11/26 22:23:18;;;;;;;19.77;8.68;;;3.20;82.60;;;;;;4995769;28;20047;-85
2022/11/26 22:25:44;;;;;;;19.23;8.27;;;3.10;82.20;;;;;;4978799;28;20026;-85
2022/11/26 22:28:10;;;;;;;16.45;8.27;;;3.00;82.40;;;;;;4980594;28;20038;-86
2022/11/26 22:30:37;;;;;;;17.55;8.90;;;2.90;83.10;;;;;;4983859;28;20084;-86
2022/11/26 22:33:04;;;;;;;17.25;8.48;;;2.70;84.20;;;;;;4984541;28;20027;-85
2022/11/26 22:35:32;;;;;;;16.98;9.55;;;2.60;84.90;;;;;;4983954;28;20018;-86
2022/11/26 22:37:57;;;;;;;23.15;8.98;;;2.60;84.40;;;;;;4982931;28;20038;-86
2022/11/26 22:40:23;;;;;;;13.85;8.38;;;2.60;85.50;;;;;;4995589;28;20107;-86
2022/11/26 22:42:48;;;;;;;14.77;8.30;;;2.60;84.80;;;;;;4996110;28;20205;-85
2022/11/26 22:45:15;;;;;;;15.90;8.50;;;2.50;84.80;;;;;;5006188;28;20027;-87
2022/11/26 22:47:41;;;;;;;18.23;8.65;;;2.60;84.80;;;;;;5004413;28;20188;-87
2022/11/26 22:50:08;;;;;;;18.27;8.55;;;2.60;84.70;;;;;;4986594;28;20026;-88
2022/11/26 22:52:33;;;;;;;15.57;7.88;;;2.70;84.40;;;;;;4981464;28;20050;-90
2022/11/26 22:54:59;;;;;;;16.58;8.10;;;2.70;84.30;;;;;;4992839;28;20014;-87
2022/11/26 22:57:24;;;;;;;12.45;7.65;;;2.70;84.00;;;;;;5001902;28;20018;-85
2022/11/26 22:59:50;;;;;;;13.82;6.35;;;2.70;83.90;;;;;;5001906;28;20014;-86
2022/11/26 23:02:15;;;;;;;14.75;7.50;;;2.70;83.60;;;;;;4983392;28;20045;-86
2022/11/26 23:04:41;;;;;;;14.35;6.90;;;2.70;83.40;;;;;;4979969;28;20049;-87
2022/11/26 23:07:07;;;;;;;11.30;6.55;;;2.70;83.40;;;;;;4979961;28;20034;-85
2022/11/26 23:09:32;;;;;;;15.60;7.90;;;2.70;83.20;;;;;;4997211;28;20027;-86
2022/11/26 23:11:58;;;;;;;14.18;7.45;;;2.70;83.30;;;;;;4998817;28;20064;-90
2022/11/26 23:14:23;;;;;;;12.63;7.20;;;2.70;83.30;;;;;;4986371;28;20018;-86
2022/11/26 23:16:49;;;;;;;13.57;6.85;;;2.70;83.40;;;;;;4991972;28;20022;-86
2022/11/26 23:19:15;;;;;;;15.20;7.90;;;2.70;83.40;;;;;;4993674;28;20093;-85
2022/11/26 23:21:43;;;;;;;15.00;7.63;;;2.70;83.30;;;;;;4988867;28;20026;-85
2022/11/26 23:24:09;;;;;;;14.18;7.47;;;2.80;83.30;;;;;;4989894;28;20050;-86
2022/11/26 23:26:37;;;;;;;16.60;8.40;;;2.80;83.30;;;;;;4995182;28;20030;-89
2022/11/26 23:29:03;;;;;;;15.45;7.82;;;2.80;83.10;;;;;;4994055;28;20026;-87
2022/11/26 23:31:35;;;;;;;13.45;8.43;;;2.80;83.00;;;;;;4992721;28;20045;-87
2022/11/26 23:34:01;;;;;;;14.88;7.72;;;2.90;82.90;;;;;;4989758;28;20033;-89
2022/11/26 23:36:28;;;;;;;15.77;7.65;;;2.90;82.50;;;;;;4984873;28;20026;-90
2022/11/26 23:38:54;;;;;;;16.73;7.60;;;2.90;82.60;;;;;;4982235;28;20026;-86
2022/11/26 23:41:20;;;;;;;15.32;7.90;;;2.70;82.80;;;;;;4978426;28;20019;-90
2022/11/26 23:43:45;;;;;;;14.23;8.20;;;2.80;83.00;;;;;;4979191;28;20026;-90
2022/11/26 23:46:19;;;;;;;12.55;7.57;;;2.70;83.10;;;;;;4978845;28;20031;-89
2022/11/26 23:48:45;;;;;;;14.82;8.25;;;2.70;83.40;;;;;;4981422;28;20034;-92
2022/11/26 23:51:17;;;;;;;18.13;8.38;;;2.80;83.50;;;;;;4978642;28;20022;-89
2022/11/26 23:53:44;;;;;;;14.65;8.27;;;2.70;83.50;;;;;;4996667;28;20095;-90
2022/11/26 23:56:13;;;;;;;18.55;9.30;;;2.70;83.90;;;;;;4997180;28;20475;-87
2022/11/26 23:58:38;;;;;;;21.80;9.63;;;2.60;83.80;;;;;;4997151;28;20467;-86
